createdAt,value
2018-05-12T00:00:34.234Z,3.80
2018-05-12T00:01:34.606Z,3.90
2018-05-12T00:02:34.528Z,4.50
2018-05-12T00:03:34.836Z,4.20
2018-05-12T00:04:34.874Z,4.20
2018-05-12T00:05:35.149Z,4.10
2018-05-12T00:06:35.197Z,4.20
2018-05-12T00:07:35.466Z,4.40
2018-05-12T00:08:35.515Z,3.90
2018-05-12T00:09:35.893Z,4.10
2018-05-12T00:10:35.811Z,4.50
2018-05-12T00:11:36.111Z,4.10
2018-05-12T00:12:36.160Z,3.60
2018-05-12T00:13:36.534Z,3.80
2018-05-12T00:14:36.461Z,3.70
2018-05-12T00:15:36.756Z,4.10
2018-05-12T00:16:36.800Z,3.80
2018-05-12T00:17:37.076Z,4.20
2018-05-12T00:18:37.125Z,4.30
2018-05-12T00:19:37.399Z,3.70
2018-05-12T00:20:37.450Z,3.00
2018-05-12T00:21:37.719Z,3.20
2018-05-12T00:22:37.788Z,3.30
2018-05-12T00:23:38.145Z,3.90
2018-05-12T00:24:38.061Z,4.40
2018-05-12T00:25:38.367Z,4.50
2018-05-12T00:26:38.424Z,4.00
2018-05-12T00:27:38.792Z,4.50
2018-05-12T00:28:38.714Z,4.70
2018-05-12T00:29:39.006Z,4.10
2018-05-12T00:30:39.058Z,3.80
2018-05-12T00:31:39.437Z,3.70
2018-05-12T00:32:39.437Z,4.10
2018-05-12T00:33:39.653Z,4.30
2018-05-12T00:34:39.710Z,4.30
2018-05-12T00:35:40.081Z,4.30
2018-05-12T00:36:40.003Z,4.60
2018-05-12T00:37:40.328Z,5.10
2018-05-12T00:38:40.337Z,4.00
2018-05-12T00:39:40.725Z,3.70
2018-05-12T00:40:40.648Z,4.40
2018-05-12T00:41:40.942Z,4.70
2018-05-12T00:42:40.988Z,4.60
2018-05-12T00:43:41.368Z,4.60
2018-05-12T00:44:41.287Z,4.50
2018-05-12T00:45:41.590Z,4.50
2018-05-12T00:46:41.638Z,4.70
2018-05-12T00:47:41.910Z,4.20
2018-05-12T00:48:41.967Z,5.00
2018-05-12T00:49:42.234Z,5.10
2018-05-12T00:50:42.280Z,5.00
2018-05-12T00:51:42.660Z,4.60
2018-05-12T00:52:42.579Z,4.90
2018-05-12T00:53:42.873Z,5.00
2018-05-12T00:54:42.921Z,5.10
2018-05-12T00:55:43.301Z,4.50
2018-05-12T00:56:43.222Z,4.50
2018-05-12T00:57:43.415Z,4.10
2018-05-12T00:58:43.590Z,3.40
2018-05-12T00:59:43.842Z,3.10
2018-05-12T01:00:43.888Z,3.30
2018-05-12T01:01:44.172Z,3.60
2018-05-12T01:02:44.208Z,3.20
2018-05-12T01:03:44.495Z,3.10
2018-05-12T01:04:44.537Z,3.30
2018-05-12T01:05:44.812Z,3.50
2018-05-12T01:06:44.851Z,4.10
2018-05-12T01:07:45.233Z,4.20
2018-05-12T01:08:45.619Z,4.20
2018-05-12T01:09:45.455Z,4.80
2018-05-12T01:10:45.589Z,4.80
2018-05-12T01:11:45.883Z,4.90
2018-05-12T01:12:45.806Z,5.10
2018-05-12T01:13:45.998Z,4.80
2018-05-12T01:14:46.168Z,5.10
2018-05-12T01:15:46.529Z,4.50
2018-05-12T01:16:46.464Z,3.40
2018-05-12T01:17:46.745Z,3.60
2018-05-12T01:18:46.789Z,3.70
2018-05-12T01:19:47.070Z,3.90
2018-05-12T01:20:47.385Z,3.20
2018-05-12T01:21:47.392Z,3.90
2018-05-12T01:22:47.433Z,4.00
2018-05-12T01:23:47.812Z,4.20
2018-05-12T01:24:47.727Z,4.30
2018-05-12T01:25:48.031Z,5.40
2018-05-12T01:26:48.078Z,5.00
2018-05-12T01:27:48.455Z,5.20
2018-05-12T01:28:48.377Z,6.30
2018-05-12T01:29:48.675Z,6.20
2018-05-12T01:30:48.718Z,5.70
2018-05-12T01:31:48.998Z,4.10
2018-05-12T01:32:49.463Z,4.10
2018-05-12T01:33:49.667Z,3.70
2018-05-12T01:34:49.380Z,4.70
2018-05-12T01:35:49.839Z,4.20
2018-05-12T01:36:49.776Z,5.10
2018-05-12T01:37:50.166Z,4.50
2018-05-12T01:38:50.102Z,3.90
2018-05-12T01:39:50.590Z,4.60
2018-05-12T01:40:50.399Z,4.80
2018-05-12T01:41:50.604Z,4.60
2018-05-12T01:42:50.782Z,5.60
2018-05-12T01:43:52.055Z,5.60
2018-05-12T01:44:51.094Z,5.30
2018-05-12T01:45:51.352Z,5.60
2018-05-12T01:46:51.402Z,5.80
2018-05-12T01:47:51.673Z,5.90
2018-05-12T01:48:51.725Z,5.80
2018-05-12T01:49:52.098Z,6.00
2018-05-12T01:50:52.023Z,5.60
2018-05-12T01:51:52.316Z,6.10
2018-05-12T01:52:53.005Z,5.70
2018-05-12T01:53:52.744Z,6.10
2018-05-12T01:54:52.676Z,5.90
2018-05-12T01:55:53.525Z,5.50
2018-05-12T01:56:53.200Z,5.70
2018-05-12T01:57:53.584Z,5.50
2018-05-12T01:58:53.387Z,5.30
2018-05-12T01:59:53.812Z,5.90
2018-05-12T02:00:54.576Z,5.50
2018-05-12T02:01:54.034Z,6.10
2018-05-12T02:02:54.992Z,5.80
2018-05-12T02:03:54.287Z,5.70
2018-05-12T02:04:54.464Z,5.70
2018-05-12T02:05:54.880Z,5.80
2018-05-12T02:06:54.824Z,5.70
2018-05-12T02:07:55.991Z,5.90
2018-05-12T02:08:55.998Z,5.30
2018-05-12T02:09:55.526Z,5.70
2018-05-12T02:10:55.439Z,6.00
2018-05-12T02:11:55.624Z,4.90
2018-05-12T02:12:55.988Z,5.40
2018-05-12T02:13:55.908Z,5.50
2018-05-12T02:14:57.002Z,5.90
2018-05-12T02:15:56.226Z,5.90
2018-05-12T02:16:56.612Z,5.90
2018-05-12T02:17:57.499Z,5.90
2018-05-12T02:18:56.748Z,5.70
2018-05-12T02:19:56.799Z,5.70
2018-05-12T02:20:57.382Z,5.50
2018-05-12T02:21:57.452Z,5.80
2018-05-12T02:22:57.468Z,6.30
2018-05-12T02:23:57.533Z,5.70
2018-05-12T02:24:57.893Z,5.90
2018-05-12T02:25:57.820Z,5.70
2018-05-12T02:26:58.109Z,6.20
2018-05-12T02:27:58.160Z,6.10
2018-05-12T02:28:58.534Z,6.00
2018-05-12T02:29:58.444Z,6.00
2018-05-12T02:30:58.755Z,5.90
2018-05-12T02:31:58.802Z,6.10
2018-05-12T02:32:59.181Z,7.00
2018-05-12T02:33:59.102Z,5.90
2018-05-12T02:34:59.399Z,5.70
2018-05-12T02:35:59.445Z,5.80
2018-05-12T02:36:59.831Z,5.10
2018-05-12T02:37:59.737Z,5.60
2018-05-12T02:39:00.051Z,5.30
2018-05-12T02:40:00.091Z,5.30
2018-05-12T02:41:00.470Z,6.20
2018-05-12T02:42:00.388Z,6.10
2018-05-12T02:43:00.690Z,6.30
2018-05-12T02:44:00.752Z,6.30
2018-05-12T02:45:02.123Z,7.30
2018-05-12T02:46:01.040Z,7.00
2018-05-12T02:47:01.337Z,7.00
2018-05-12T02:48:02.517Z,6.40
2018-05-12T02:49:01.754Z,6.80
2018-05-12T02:50:01.808Z,6.60
2018-05-12T02:51:02.184Z,6.90
2018-05-12T02:52:02.103Z,6.70
2018-05-12T02:53:02.402Z,6.90
2018-05-12T02:54:02.447Z,6.90
2018-05-12T02:55:02.812Z,6.30
2018-05-12T02:56:03.511Z,6.80
2018-05-12T02:57:03.253Z,7.40
2018-05-12T02:58:03.311Z,7.10
2018-05-12T02:59:03.468Z,7.50
2018-05-12T03:00:03.531Z,7.40
2018-05-12T03:01:03.698Z,6.70
2018-05-12T03:02:04.111Z,7.20
2018-05-12T03:03:04.030Z,7.00
2018-05-12T03:04:04.334Z,7.20
2018-05-12T03:05:04.384Z,7.20
2018-05-12T03:06:09.257Z,7.60
2018-05-12T03:07:04.726Z,7.10
2018-05-12T03:08:07.021Z,8.10
2018-05-12T03:09:05.058Z,7.30
2018-05-12T03:10:05.398Z,7.40
2018-05-12T03:11:05.452Z,7.60
2018-05-12T03:12:05.820Z,7.10
2018-05-12T03:13:05.743Z,6.90
2018-05-12T03:14:05.921Z,6.80
2018-05-12T03:15:06.095Z,7.30
2018-05-12T03:16:06.466Z,7.00
2018-05-12T03:17:06.387Z,7.00
2018-05-12T03:18:06.888Z,7.30
2018-05-12T03:19:06.685Z,7.20
2018-05-12T03:20:07.111Z,7.40
2018-05-12T03:21:07.029Z,7.80
2018-05-12T03:22:07.639Z,8.00
2018-05-12T03:23:08.013Z,7.50
2018-05-12T03:24:07.749Z,7.30
2018-05-12T03:25:07.670Z,7.50
2018-05-12T03:26:07.970Z,7.60
2018-05-12T03:27:08.249Z,7.30
2018-05-12T03:28:08.400Z,7.80
2018-05-12T03:29:08.714Z,7.40
2018-05-12T03:30:08.721Z,7.60
2018-05-12T03:31:08.640Z,7.20
2018-05-12T03:32:08.947Z,7.90
2018-05-12T03:33:09.516Z,7.60
2018-05-12T03:34:09.833Z,7.30
2018-05-12T03:35:09.298Z,7.50
2018-05-12T03:36:09.584Z,7.30
2018-05-12T03:37:09.633Z,7.20
2018-05-12T03:38:10.008Z,7.60
2018-05-12T03:39:09.927Z,7.50
2018-05-12T03:40:10.228Z,7.50
2018-05-12T03:41:10.278Z,7.80
2018-05-12T03:42:10.655Z,7.10
2018-05-12T03:43:10.575Z,7.80
2018-05-12T03:44:10.748Z,7.60
2018-05-12T03:45:11.086Z,7.90
2018-05-12T03:46:11.127Z,7.50
2018-05-12T03:47:11.509Z,8.20
2018-05-12T03:48:11.428Z,7.90
2018-05-12T03:49:11.724Z,8.00
2018-05-12T03:50:11.782Z,8.20
2018-05-12T03:51:12.155Z,7.50
2018-05-12T03:52:12.072Z,7.80
2018-05-12T03:53:12.372Z,7.80
2018-05-12T03:54:12.420Z,7.40
2018-05-12T03:55:12.800Z,7.40
2018-05-12T03:56:12.714Z,7.40
2018-05-12T03:57:13.013Z,7.90
2018-05-12T03:58:13.074Z,7.90
2018-05-12T03:59:13.441Z,8.70
2018-05-12T04:00:13.374Z,8.60
2018-05-12T04:01:13.731Z,8.80
2018-05-12T04:02:13.705Z,8.80
2018-05-12T04:03:14.086Z,8.80
2018-05-12T04:04:14.012Z,6.90
2018-05-12T04:05:14.307Z,6.90
2018-05-12T04:06:14.350Z,7.20
2018-05-12T04:07:14.731Z,7.40
2018-05-12T04:08:14.648Z,7.10
2018-05-12T04:09:14.946Z,6.90
2018-05-12T04:10:14.999Z,8.00
2018-05-12T04:11:15.377Z,8.20
2018-05-12T04:12:15.290Z,8.70
2018-05-12T04:13:15.470Z,8.80
2018-05-12T04:14:15.808Z,9.00
2018-05-12T04:15:15.849Z,8.60
2018-05-12T04:16:16.231Z,9.50
2018-05-12T04:17:16.155Z,9.80
2018-05-12T04:18:16.447Z,8.50
2018-05-12T04:19:16.497Z,8.80
2018-05-12T04:20:16.875Z,9.30
2018-05-12T04:21:16.800Z,9.00
2018-05-12T04:22:17.095Z,8.90
2018-05-12T04:23:17.139Z,9.00
2018-05-12T04:24:17.519Z,9.20
2018-05-12T04:25:17.438Z,9.40
2018-05-12T04:26:17.737Z,8.80
2018-05-12T04:27:17.798Z,9.00
2018-05-12T04:28:18.237Z,9.30
2018-05-12T04:29:18.082Z,9.70
2018-05-12T04:30:18.387Z,9.80
2018-05-12T04:31:18.426Z,9.70
2018-05-12T04:32:18.807Z,9.60
2018-05-12T04:33:18.727Z,9.50
2018-05-12T04:34:19.026Z,9.50
2018-05-12T04:35:19.075Z,9.40
2018-05-12T04:36:19.449Z,9.10
2018-05-12T04:37:19.367Z,9.00
2018-05-12T04:38:19.549Z,8.50
2018-05-12T04:39:19.882Z,9.20
2018-05-12T04:40:19.929Z,9.00
2018-05-12T04:41:20.322Z,8.90
2018-05-12T04:42:20.234Z,9.40
2018-05-12T04:43:20.573Z,8.40
2018-05-12T04:44:20.568Z,7.00
2018-05-12T04:45:20.951Z,7.50
2018-05-12T04:46:20.867Z,7.20
2018-05-12T04:47:21.171Z,7.00
2018-05-12T04:48:21.218Z,7.80
2018-05-12T04:49:21.596Z,7.80
2018-05-12T04:50:21.517Z,7.80
2018-05-12T04:51:21.815Z,8.60
2018-05-12T04:52:21.864Z,9.30
2018-05-12T04:53:22.237Z,9.20
2018-05-12T04:54:22.163Z,7.90
2018-05-12T04:55:22.336Z,7.90
2018-05-12T04:56:22.672Z,8.40
2018-05-12T04:57:22.719Z,8.10
2018-05-12T04:58:23.095Z,8.50
2018-05-12T04:59:23.020Z,8.40
2018-05-12T05:00:23.313Z,8.50
2018-05-12T05:01:23.362Z,8.40
2018-05-12T05:02:23.737Z,8.20
2018-05-12T05:03:23.659Z,7.80
2018-05-12T05:04:23.959Z,7.60
2018-05-12T05:05:24.013Z,7.70
2018-05-12T05:06:24.387Z,8.30
2018-05-12T05:07:24.313Z,8.20
2018-05-12T05:08:24.599Z,7.90
2018-05-12T05:09:24.649Z,8.20
2018-05-12T05:10:25.024Z,7.90
2018-05-12T05:11:24.950Z,7.70
2018-05-12T05:12:25.256Z,7.90
2018-05-12T05:13:25.299Z,7.70
2018-05-12T05:14:25.675Z,7.80
2018-05-12T05:15:25.592Z,8.00
2018-05-12T05:16:25.895Z,8.30
2018-05-12T05:17:25.945Z,7.90
2018-05-12T05:18:26.318Z,7.80
2018-05-12T05:19:26.240Z,7.80
2018-05-12T05:20:26.535Z,8.10
2018-05-12T05:21:26.582Z,8.00
2018-05-12T05:22:26.963Z,7.70
2018-05-12T05:23:26.884Z,7.60
2018-05-12T05:24:27.184Z,7.60
2018-05-12T05:25:27.227Z,7.40
2018-05-12T05:26:27.614Z,7.70
2018-05-12T05:27:27.523Z,7.80
2018-05-12T05:28:27.826Z,7.70
2018-05-12T05:29:27.875Z,7.10
2018-05-12T05:30:28.254Z,7.60
2018-05-12T05:31:28.174Z,7.10
2018-05-12T05:32:28.469Z,7.10
2018-05-12T05:33:28.523Z,7.50
2018-05-12T05:34:28.934Z,8.20
2018-05-12T05:35:28.818Z,7.70
2018-05-12T05:36:29.116Z,7.60
2018-05-12T05:37:29.162Z,7.20
2018-05-12T05:38:29.538Z,7.70
2018-05-12T05:39:29.464Z,8.00
2018-05-12T05:40:29.758Z,8.00
2018-05-12T05:41:29.803Z,8.10
2018-05-12T05:42:30.185Z,7.60
2018-05-12T05:43:30.109Z,7.90
2018-05-12T05:44:30.404Z,7.70
2018-05-12T05:45:30.452Z,7.80
2018-05-12T05:46:30.829Z,7.80
2018-05-12T05:47:30.758Z,8.70
2018-05-12T05:48:31.055Z,8.60
2018-05-12T05:49:31.104Z,8.40
2018-05-12T05:50:31.478Z,8.50
2018-05-12T05:51:31.398Z,8.50
2018-05-12T05:52:31.692Z,8.60
2018-05-12T05:53:31.740Z,8.20
2018-05-12T05:54:32.119Z,8.90
2018-05-12T05:55:32.050Z,8.40
2018-05-12T05:56:32.335Z,8.20
2018-05-12T05:57:32.387Z,8.60
2018-05-12T05:58:32.792Z,8.20
2018-05-12T05:59:32.688Z,8.10
2018-05-12T06:00:32.980Z,8.30
2018-05-12T06:01:33.033Z,8.30
2018-05-12T06:02:33.403Z,8.20
2018-05-12T06:03:33.326Z,8.00
2018-05-12T06:04:33.629Z,8.20
2018-05-12T06:05:33.673Z,8.80
2018-05-12T06:06:34.048Z,8.10
2018-05-12T06:07:33.968Z,8.00
2018-05-12T06:08:34.275Z,7.30
2018-05-12T06:09:34.325Z,7.90
2018-05-12T06:10:34.695Z,7.60
2018-05-12T06:11:34.620Z,8.20
2018-05-12T06:12:34.913Z,8.00
2018-05-12T06:13:34.972Z,8.10
2018-05-12T06:14:36.361Z,8.30
2018-05-12T06:15:35.285Z,8.70
2018-05-12T06:16:36.585Z,8.10
2018-05-12T06:17:35.629Z,8.50
2018-05-12T06:18:35.988Z,8.60
2018-05-12T06:19:35.900Z,8.80
2018-05-12T06:20:36.204Z,8.00
2018-05-12T06:21:36.247Z,8.10
2018-05-12T06:22:36.627Z,8.30
2018-05-12T06:23:36.543Z,7.80
2018-05-12T06:24:36.846Z,8.60
2018-05-12T06:25:36.913Z,8.30
2018-05-12T06:26:37.071Z,8.40
2018-05-12T06:27:38.506Z,8.70
2018-05-12T06:28:37.427Z,9.10
2018-05-12T06:29:37.910Z,8.90
2018-05-12T06:30:37.707Z,9.30
2018-05-12T06:31:38.126Z,8.50
2018-05-12T06:32:38.046Z,8.80
2018-05-12T06:33:38.400Z,9.10
2018-05-12T06:34:38.394Z,8.70
2018-05-12T06:35:38.773Z,9.50
2018-05-12T06:36:38.691Z,9.50
2018-05-12T06:37:39.098Z,9.70
2018-05-12T06:38:39.019Z,9.70
2018-05-12T06:39:39.317Z,10.30
2018-05-12T06:40:39.359Z,10.40
2018-05-12T06:41:39.731Z,9.70
2018-05-12T06:42:39.678Z,9.70
2018-05-12T06:43:39.960Z,10.20
2018-05-12T06:44:40.009Z,10.20
2018-05-12T06:45:40.398Z,10.40
2018-05-12T06:46:40.323Z,10.60
2018-05-12T06:47:40.606Z,10.80
2018-05-12T06:48:40.655Z,10.40
2018-05-12T06:49:41.030Z,11.00
2018-05-12T06:50:40.943Z,10.30
2018-05-12T06:51:41.244Z,11.00
2018-05-12T06:52:41.298Z,10.40
2018-05-12T06:53:41.673Z,10.80
2018-05-12T06:54:41.594Z,11.30
2018-05-12T06:55:41.892Z,11.00
2018-05-12T06:56:41.938Z,11.50
2018-05-12T06:57:42.319Z,11.20
2018-05-12T06:58:42.240Z,11.90
2018-05-12T06:59:42.531Z,12.20
2018-05-12T07:00:42.589Z,12.20
2018-05-12T07:01:42.893Z,12.00
2018-05-12T07:02:43.168Z,12.20
2018-05-12T07:03:43.092Z,12.10
2018-05-12T07:04:43.385Z,12.00
2018-05-12T07:05:43.439Z,13.10
2018-05-12T07:06:44.557Z,12.70
2018-05-12T07:07:43.753Z,12.50
2018-05-12T07:08:44.038Z,12.70
2018-05-12T07:09:45.556Z,13.10
2018-05-12T07:10:44.529Z,12.80
2018-05-12T07:11:44.417Z,12.90
2018-05-12T07:12:44.680Z,13.10
2018-05-12T07:13:44.729Z,13.00
2018-05-12T07:14:45.147Z,13.20
2018-05-12T07:15:45.035Z,13.00
2018-05-12T07:16:45.322Z,13.10
2018-05-12T07:17:45.544Z,13.20
2018-05-12T07:18:45.750Z,13.10
2018-05-12T07:19:45.800Z,13.10
2018-05-12T07:20:46.304Z,13.60
2018-05-12T07:21:46.134Z,13.60
2018-05-12T07:22:46.307Z,13.50
2018-05-12T07:23:47.567Z,13.40
2018-05-12T07:24:46.619Z,13.70
2018-05-12T07:25:47.040Z,13.60
2018-05-12T07:26:46.960Z,13.00
2018-05-12T07:27:47.257Z,14.20
2018-05-12T07:28:47.300Z,14.70
2018-05-12T07:29:47.543Z,14.00
2018-05-12T07:30:47.889Z,14.00
2018-05-12T07:31:47.836Z,14.80
2018-05-12T07:32:48.118Z,14.30
2018-05-12T07:33:48.242Z,14.30
2018-05-12T07:34:48.533Z,13.80
2018-05-12T07:35:49.590Z,13.60
2018-05-12T07:36:48.751Z,14.10
2018-05-12T07:37:48.894Z,13.30
2018-05-12T07:38:49.078Z,13.70
2018-05-12T07:39:50.072Z,13.80
2018-05-12T07:40:49.602Z,13.80
2018-05-12T07:41:49.523Z,13.80
2018-05-12T07:42:49.821Z,13.50
2018-05-12T07:43:49.868Z,14.00
2018-05-12T07:44:50.322Z,13.80
2018-05-12T07:45:50.256Z,13.50
2018-05-12T07:46:50.467Z,14.10
2018-05-12T07:47:50.679Z,13.80
2018-05-12T07:48:50.723Z,15.00
2018-05-12T07:49:51.080Z,15.20
2018-05-12T07:50:51.213Z,14.40
2018-05-12T07:51:51.263Z,14.70
2018-05-12T07:52:51.535Z,14.20
2018-05-12T07:53:51.593Z,13.70
2018-05-12T07:54:51.867Z,13.30
2018-05-12T07:55:52.570Z,13.40
2018-05-12T07:56:52.180Z,13.60
2018-05-12T07:57:52.316Z,13.00
2018-05-12T07:58:52.398Z,13.50
2018-05-12T07:59:52.784Z,14.00
2018-05-12T08:00:53.033Z,14.30
2018-05-12T08:01:52.953Z,14.00
2018-05-12T08:02:53.254Z,14.50
2018-05-12T08:03:53.292Z,13.60
2018-05-12T08:04:53.571Z,13.70
2018-05-12T08:05:53.627Z,13.00
2018-05-12T08:06:55.989Z,13.40
2018-05-12T08:07:54.022Z,13.40
2018-05-12T08:08:54.213Z,12.50
2018-05-12T08:09:54.387Z,11.80
2018-05-12T08:10:54.636Z,12.80
2018-05-12T08:11:54.694Z,13.00
2018-05-12T08:12:55.064Z,12.90
2018-05-12T08:13:55.021Z,12.70
2018-05-12T08:14:55.287Z,11.60
2018-05-12T08:15:55.366Z,11.60
2018-05-12T08:16:55.605Z,11.90
2018-05-12T08:17:55.657Z,12.10
2018-05-12T08:18:55.929Z,12.10
2018-05-12T08:19:55.980Z,11.80
2018-05-12T08:20:57.276Z,11.40
2018-05-12T08:21:56.322Z,11.50
2018-05-12T08:22:56.569Z,11.80
2018-05-12T08:23:56.617Z,11.80
2018-05-12T08:24:56.811Z,11.20
2018-05-12T08:25:56.986Z,11.70
2018-05-12T08:26:57.314Z,12.20
2018-05-12T08:27:57.388Z,12.70
2018-05-12T08:28:57.642Z,12.50
2018-05-12T08:29:57.691Z,11.80
2018-05-12T08:30:57.960Z,12.20
2018-05-12T08:31:58.094Z,12.80
2018-05-12T08:32:58.178Z,11.80
2018-05-12T08:33:58.362Z,11.50
2018-05-12T08:34:58.603Z,11.10
2018-05-12T08:35:58.654Z,10.90
2018-05-12T08:36:58.928Z,10.90
2018-05-12T08:37:58.990Z,10.10
2018-05-12T08:38:59.273Z,12.80
2018-05-12T08:39:59.317Z,12.70
2018-05-12T08:40:59.493Z,12.20
2018-05-12T08:41:59.818Z,12.40
2018-05-12T08:42:59.826Z,11.30
2018-05-12T08:44:00.121Z,11.70
2018-05-12T08:45:00.162Z,11.30
2018-05-12T08:46:00.430Z,10.10
2018-05-12T08:47:00.492Z,10.20
2018-05-12T08:48:00.752Z,10.00
2018-05-12T08:49:00.809Z,9.70
2018-05-12T08:50:01.078Z,9.90
2018-05-12T08:51:01.146Z,10.70
2018-05-12T08:52:01.393Z,10.80
2018-05-12T08:53:01.540Z,10.60
2018-05-12T08:54:01.822Z,9.90
2018-05-12T08:55:01.889Z,10.00
2018-05-12T08:56:02.145Z,10.90
2018-05-12T08:57:02.193Z,11.20
2018-05-12T08:58:02.668Z,11.50
2018-05-12T08:59:03.781Z,10.90
2018-05-12T09:00:02.874Z,10.20
2018-05-12T09:01:02.896Z,9.40
2018-05-12T09:02:03.110Z,9.10
2018-05-12T09:03:03.297Z,9.40
2018-05-12T09:04:03.553Z,9.00
2018-05-12T09:05:03.649Z,9.50
2018-05-12T09:06:03.961Z,8.70
2018-05-12T09:07:04.053Z,8.60
2018-05-12T09:08:04.391Z,9.30
2018-05-12T09:09:04.472Z,8.60
2018-05-12T09:10:04.734Z,8.70
2018-05-12T09:11:04.817Z,8.70
2018-05-12T09:12:05.132Z,8.50
2018-05-12T09:13:06.133Z,8.30
2018-05-12T09:14:06.083Z,7.20
2018-05-12T09:15:05.563Z,7.40
2018-05-12T09:16:06.589Z,6.50
2018-05-12T09:17:05.931Z,6.00
2018-05-12T09:18:07.095Z,6.30
2018-05-12T09:19:06.199Z,6.60
2018-05-12T09:20:06.420Z,6.20
2018-05-12T09:21:07.594Z,7.00
2018-05-12T09:22:06.804Z,6.40
2018-05-12T09:23:07.588Z,5.70
2018-05-12T09:24:08.092Z,6.50
2018-05-12T09:25:07.386Z,4.90
2018-05-12T09:26:07.556Z,4.40
2018-05-12T09:27:08.608Z,3.90
2018-05-12T09:28:24.233Z,4.40
2018-05-12T09:29:08.012Z,4.80
2018-05-12T09:30:08.183Z,4.40
2018-05-12T09:31:08.443Z,4.70
2018-05-12T09:32:08.507Z,4.40
2018-05-12T09:33:08.897Z,4.00
2018-05-12T09:34:08.867Z,3.60
2018-05-12T09:35:09.191Z,3.30
2018-05-12T09:36:09.259Z,3.00
2018-05-12T09:37:09.531Z,2.90
2018-05-12T09:38:09.589Z,2.70
2018-05-12T09:39:09.835Z,2.40
2018-05-12T09:40:10.025Z,2.80
2018-05-12T09:41:10.258Z,3.10
2018-05-12T09:42:10.448Z,4.10
2018-05-12T09:43:10.682Z,3.90
2018-05-12T09:44:10.889Z,3.70
2018-05-12T09:45:11.114Z,2.70
2018-05-12T09:46:11.297Z,2.50
2018-05-12T09:47:11.529Z,2.90
2018-05-12T09:48:11.717Z,2.90
2018-05-12T09:49:12.006Z,2.70
2018-05-12T09:50:12.047Z,3.30
2018-05-12T09:51:12.384Z,3.30
2018-05-12T09:52:12.444Z,3.10
2018-05-12T09:53:12.807Z,3.20
2018-05-12T09:54:12.870Z,4.00
2018-05-12T09:55:13.234Z,4.00
2018-05-12T09:56:13.298Z,3.90
2018-05-12T09:57:13.659Z,3.60
2018-05-12T09:58:14.667Z,3.50
2018-05-12T09:59:14.081Z,3.30
2018-05-12T10:00:14.027Z,3.20
2018-05-12T10:01:14.299Z,3.30
2018-05-12T10:02:14.423Z,4.00
2018-05-12T10:03:14.826Z,4.10
2018-05-12T10:04:14.778Z,3.50
2018-05-12T10:05:14.973Z,3.60
2018-05-12T10:06:15.363Z,3.30
2018-05-12T10:07:15.299Z,3.20
2018-05-12T10:08:16.615Z,3.50
2018-05-12T10:09:15.670Z,3.40
2018-05-12T10:10:15.907Z,3.50
2018-05-12T10:11:16.153Z,3.20
2018-05-12T10:12:17.454Z,3.80
2018-05-12T10:13:16.517Z,4.00
2018-05-12T10:14:16.912Z,3.20
2018-05-12T10:15:16.919Z,3.80
2018-05-12T10:16:19.830Z,3.80
2018-05-12T10:17:17.287Z,3.40
2018-05-12T10:18:17.603Z,3.70
2018-05-12T10:19:17.669Z,3.60
2018-05-12T10:20:17.930Z,3.20
2018-05-12T10:21:17.981Z,3.30
2018-05-12T10:22:18.245Z,3.60
2018-05-12T10:23:19.093Z,3.40
2018-05-12T10:24:18.474Z,3.60
2018-05-12T10:25:18.663Z,3.40
2018-05-12T10:26:19.006Z,3.30
2018-05-12T10:27:19.064Z,3.50
2018-05-12T10:28:19.382Z,3.60
2018-05-12T10:29:19.494Z,3.50
2018-05-12T10:30:19.745Z,3.40
2018-05-12T10:31:19.946Z,3.40
2018-05-12T10:32:20.167Z,3.40
2018-05-12T10:33:20.368Z,3.50
2018-05-12T10:34:20.600Z,3.30
2018-05-12T10:35:20.804Z,3.80
2018-05-12T10:36:21.016Z,3.80
2018-05-12T10:37:21.203Z,3.90
2018-05-12T10:38:21.441Z,3.70
2018-05-12T10:39:21.655Z,3.70
2018-05-12T10:40:21.867Z,3.60
2018-05-12T10:41:22.055Z,3.60
2018-05-12T10:42:22.288Z,3.50
2018-05-12T10:43:22.477Z,3.60
2018-05-12T10:44:22.818Z,3.20
2018-05-12T10:45:22.955Z,3.50
2018-05-12T10:46:23.137Z,3.00
2018-05-12T10:47:23.339Z,3.70
2018-05-12T10:48:23.563Z,3.50
2018-05-12T10:49:23.758Z,3.70
2018-05-12T10:50:23.986Z,4.10
2018-05-12T10:51:24.183Z,3.40
2018-05-12T10:52:24.414Z,3.30
2018-05-12T10:53:24.605Z,3.50
2018-05-12T10:54:25.593Z,3.40
2018-05-12T10:55:24.973Z,3.10
2018-05-12T10:56:25.262Z,3.20
2018-05-12T10:57:25.335Z,3.90
2018-05-12T10:58:25.581Z,3.60
2018-05-12T10:59:25.783Z,3.00
2018-05-12T11:00:26.214Z,3.00
2018-05-12T11:01:26.161Z,2.90
2018-05-12T11:02:26.432Z,2.90
2018-05-12T11:03:26.498Z,2.90
2018-05-12T11:04:26.858Z,2.80
2018-05-12T11:05:26.932Z,3.10
2018-05-12T11:06:27.183Z,2.80
2018-05-12T11:07:27.380Z,2.90
2018-05-12T11:08:27.607Z,2.70
2018-05-12T11:09:27.797Z,2.70
2018-05-12T11:10:28.025Z,3.10
2018-05-12T11:11:28.219Z,3.40
2018-05-12T11:12:28.453Z,2.80
2018-05-12T11:13:28.654Z,3.20
2018-05-12T11:14:28.852Z,3.10
2018-05-12T11:15:29.090Z,3.10
2018-05-12T11:16:29.283Z,2.50
2018-05-12T11:17:29.515Z,2.50
2018-05-12T11:18:29.707Z,2.70
2018-05-12T11:19:29.978Z,2.90
2018-05-12T11:20:30.152Z,2.70
2018-05-12T11:21:30.469Z,2.70
2018-05-12T11:22:30.534Z,2.90
2018-05-12T11:23:30.789Z,2.80
2018-05-12T11:24:30.976Z,3.10
2018-05-12T11:25:31.211Z,3.20
2018-05-12T11:26:31.480Z,2.80
2018-05-12T11:27:31.634Z,2.90
2018-05-12T11:28:31.836Z,2.80
2018-05-12T11:29:32.063Z,2.50
2018-05-12T11:30:32.258Z,2.80
2018-05-12T11:31:32.488Z,2.90
2018-05-12T11:32:33.741Z,2.60
2018-05-12T11:33:32.912Z,2.60
2018-05-12T11:34:33.151Z,2.80
2018-05-12T11:35:33.432Z,2.80
2018-05-12T11:36:33.510Z,3.00
2018-05-12T11:37:33.759Z,2.80
2018-05-12T11:38:34.621Z,2.60
2018-05-12T11:39:34.290Z,2.70
2018-05-12T11:40:34.360Z,2.70
2018-05-12T11:41:34.604Z,2.60
2018-05-12T11:42:34.799Z,2.60
2018-05-12T11:43:35.036Z,2.80
2018-05-12T11:44:35.289Z,2.60
2018-05-12T11:45:35.457Z,2.90
2018-05-12T11:46:35.674Z,2.70
2018-05-12T11:47:35.888Z,2.80
2018-05-12T11:49:30.212Z,2.70
2018-05-12T11:50:30.418Z,2.60
2018-05-12T11:51:30.771Z,2.40
2018-05-12T11:52:31.433Z,2.60
2018-05-12T11:53:30.980Z,2.80
2018-05-12T11:54:31.126Z,2.50
2018-05-12T11:55:31.327Z,2.40
2018-05-12T11:56:31.526Z,2.50
2018-05-12T11:57:31.719Z,3.50
2018-05-12T11:58:31.913Z,3.00
2018-05-12T11:59:32.229Z,2.70
2018-05-12T12:00:32.301Z,2.50
2018-05-12T12:01:32.503Z,2.80
2018-05-12T12:02:32.705Z,2.70
2018-05-12T12:03:32.896Z,2.90
2018-05-12T12:04:33.085Z,2.90
2018-05-12T12:05:33.292Z,2.80
2018-05-12T12:06:33.501Z,2.70
2018-05-12T12:07:33.689Z,3.10
2018-05-12T12:08:33.881Z,2.80
2018-05-12T12:09:34.074Z,2.80
2018-05-12T12:10:34.264Z,2.60
2018-05-12T12:11:34.459Z,2.60
2018-05-12T12:12:34.645Z,2.60
2018-05-12T12:13:34.848Z,2.50
2018-05-12T12:14:35.034Z,2.50
2018-05-12T12:15:35.225Z,2.60
2018-05-12T12:16:35.468Z,2.70
2018-05-12T12:17:35.612Z,2.50
2018-05-12T12:18:35.808Z,2.80
2018-05-12T12:19:35.999Z,2.80
2018-05-12T12:20:36.192Z,2.80
2018-05-12T12:21:36.387Z,2.80
2018-05-12T12:22:36.575Z,3.00
2018-05-12T12:23:36.760Z,2.80
2018-05-12T12:24:36.960Z,2.80
2018-05-12T12:25:37.152Z,2.80
2018-05-12T12:26:37.341Z,2.60
2018-05-12T12:27:37.525Z,2.60
2018-05-12T12:28:37.722Z,2.50
2018-05-12T12:29:37.914Z,2.40
2018-05-12T12:30:38.105Z,2.90
2018-05-12T12:31:38.300Z,2.50
2018-05-12T12:32:38.556Z,2.50
2018-05-12T12:33:38.687Z,2.70
2018-05-12T12:34:38.879Z,2.30
2018-05-12T12:35:39.083Z,2.30
2018-05-12T12:36:39.275Z,2.50
2018-05-12T12:37:39.474Z,2.60
2018-05-12T12:38:39.648Z,2.40
2018-05-12T12:39:39.866Z,2.50
2018-05-12T12:40:40.052Z,2.50
2018-05-12T12:41:40.242Z,2.60
2018-05-12T12:42:40.437Z,2.50
2018-05-12T12:43:40.642Z,2.40
2018-05-12T12:44:40.829Z,2.70
2018-05-12T12:45:41.029Z,2.60
2018-05-12T12:46:41.214Z,2.70
2018-05-12T12:47:41.403Z,2.80
2018-05-12T12:48:41.597Z,2.90
2018-05-12T12:49:41.780Z,2.70
2018-05-12T12:50:41.968Z,2.70
2018-05-12T12:51:42.173Z,2.40
2018-05-12T12:52:42.350Z,2.50
2018-05-12T12:53:42.543Z,2.50
2018-05-12T12:54:42.729Z,2.50
2018-05-12T12:55:42.911Z,2.70
2018-05-12T12:56:43.094Z,2.50
2018-05-12T12:57:43.275Z,2.50
2018-05-12T12:58:43.470Z,2.50
2018-05-12T12:59:43.655Z,2.40
2018-05-12T13:00:43.844Z,2.60
2018-05-12T13:01:44.032Z,2.60
2018-05-12T13:02:44.215Z,2.50
2018-05-12T13:03:44.397Z,2.20
2018-05-12T13:04:45.144Z,2.70
2018-05-12T13:05:44.751Z,2.50
2018-05-12T13:06:44.949Z,2.30
2018-05-12T13:07:45.157Z,2.50
2018-05-12T13:08:45.334Z,2.30
2018-05-12T13:09:45.520Z,3.20
2018-05-12T13:10:45.695Z,2.60
2018-05-12T13:11:45.880Z,2.40
2018-05-12T13:12:46.060Z,2.30
2018-05-12T13:13:46.233Z,2.90
2018-05-12T13:14:46.416Z,2.80
2018-05-12T13:15:46.598Z,2.50
2018-05-12T13:16:46.785Z,2.50